Flight Track Log - Related Links

Times and Time Zones

All times are in EDT time to prevent confusion due to time zone crossing. See the CHH7668 flight status page for this flight to view local times or setup timezone preferences in your user account.

Time Position Orientation Groundspeed Altitude Reporting Facility
EDT Latitude Longitude Course Direction KTS MPH feet Rate Location/Type
Fri 09:51:00 AM 25.3317 109.9574 327° Northwest  Level Estimated
Fri 09:52:00 AM 25.4452 109.8755 327° Northwest  Level Estimated
Fri 09:53:00 AM 25.5588 109.7934 327° Northwest  Level Estimated
Fri 09:54:00 AM 25.6722 109.7112 327° Northwest  Level Estimated
Fri 09:55:00 AM 25.7856 109.6288 327° Northwest  Level Estimated
Fri 09:56:00 AM 25.8990 109.5462 327° Northwest  Level Estimated
Fri 09:57:00 AM 26.0123 109.4635 327° Northwest  Level Estimated
Fri 09:58:00 AM 26.1256 109.3807 327° Northwest  Level Estimated
Fri 09:59:00 AM 26.2388 109.2976 327° Northwest  Level Estimated
Fri 10:00:00 AM 26.3520 109.2144 327° Northwest  Level Estimated
Fri 10:01:00 AM 26.4651 109.1311 327° Northwest  Level Estimated
Fri 10:02:00 AM 26.5782 109.0475 327° Northwest  Level Estimated
Fri 10:03:00 AM 26.6912 108.9639 327° Northwest  Level Estimated
Fri 10:04:00 AM 26.8042 108.8800 326° Northwest  Level Estimated
Fri 10:05:00 AM 26.9171 108.7960 326° Northwest  Level Estimated
Fri 10:06:00 AM 27.0300 108.7118 326° Northwest  Level Estimated
Fri 10:07:00 AM 27.1428 108.6274 326° Northwest  Level Estimated
Fri 10:08:00 AM 27.2556 108.5429 326° Northwest  Level Estimated
Fri 10:09:00 AM 27.3683 108.4582 326° Northwest  Level Estimated
Fri 10:10:00 AM 27.4810 108.3733 326° Northwest  Level Estimated
Fri 10:11:00 AM 27.5936 108.2883 326° Northwest  Level Estimated
Fri 10:12:00 AM 27.7062 108.2031 326° Northwest  Level Estimated
Fri 10:13:00 AM 27.8187 108.1177 326° Northwest  Level Estimated
Fri 10:14:00 AM 27.9312 108.0321 326° Northwest  Level Estimated
Fri 10:15:00 AM 28.0436 107.9464 326° Northwest  Level Estimated
Fri 10:16:00 AM 28.1560 107.8604 326° Northwest  Level Estimated
Fri 10:17:00 AM 28.2683 107.7743 326° Northwest  Level Estimated
Fri 10:18:00 AM 28.3806 107.6880 326° Northwest  Level Estimated
Fri 10:19:00 AM 28.4928 107.6015 326° Northwest  Level Estimated
Fri 10:20:00 AM 28.6049 107.5149 326° Northwest  Level Estimated
Fri 10:21:00 AM 28.7170 107.4280 326° Northwest  Level Estimated
Fri 10:22:00 AM 28.8290 107.3410 326° Northwest  Level Estimated
Fri 10:23:00 AM 28.9410 107.2538 326° Northwest  Level Estimated
Fri 10:24:00 AM 29.0529 107.1664 326° Northwest  Level Estimated
Fri 10:25:00 AM 29.1648 107.0788 326° Northwest  Level Estimated
Fri 10:26:00 AM 29.2766 106.9910 326° Northwest  Level Estimated
Fri 10:27:00 AM 29.3884 106.9030 326° Northwest  Level Estimated
Fri 10:28:00 AM 29.5000 106.8148 326° Northwest  Level Estimated
Fri 10:29:00 AM 29.6117 106.7265 325° Northwest  Level Estimated
Fri 10:30:00 AM 29.7194 106.6410 325° Northwest  Level Estimated
Fri 10:31:00 AM 29.7194 106.6410 60° Northeast  Level Estimated
Fri 10:32:00 AM 29.7194 106.6410 60° Northeast  Level Estimated
Fri 10:33:00 AM 29.7194 106.6410 60° Northeast  Level Estimated
Fri 10:34:00 AM 29.7194 106.6410 60° Northeast  Level Estimated
Fri 10:35:00 AM 29.7194 106.6410 60° Northeast  Level Estimated
Fri 10:36:00 AM 29.7194 106.6410 60° Northeast  Level Estimated

Login

Don't have an account? Register now (free) for customized features, flight alerts, and more!